Time;durP1;ratioP1;P1;durP2;ratioP2;P2;SDS_P1;SDS_P2;PMS_P1;PMS_P2;Temp;Humidity;BMP_temperature;BMP_pressure;BME280_temperature;BME280_humidity;BME280_pressure;Samples;Min_cycle;Max_cycle;Signal;HPM_P1;HPM_P2
2021/06/20 00:01:33;;;;;;;;;10.75;9.75;;;;;21.82;100.00;100682.50;4920678;28;45613;-65
2021/06/20 00:03:59;;;;;;;;;11.25;9.00;;;;;21.76;100.00;100669.59;4921417;28;45322;-65
2021/06/20 00:06:36;;;;;;;;;8.25;7.75;;;;;21.57;100.00;100638.84;4920986;28;46475;-65
2021/06/20 00:09:09;;;;;;;;;7.00;7.00;;;;;21.76;100.00;100672.25;4920739;28;45599;-64
2021/06/20 00:11:40;;;;;;;;;9.00;8.75;;;;;21.70;100.00;100673.47;4920901;28;45380;-65
2021/06/20 00:14:06;;;;;;;;;7.00;6.75;;;;;21.67;100.00;100678.97;4921290;28;45507;-65
2021/06/20 00:16:33;;;;;;;;;7.25;7.00;;;;;21.74;100.00;100679.47;4921006;28;47072;-64
2021/06/20 00:18:59;;;;;;;;;6.50;6.25;;;;;21.68;100.00;100673.56;4921444;28;45570;-65
2021/06/20 00:21:25;;;;;;;;;9.00;7.50;;;;;21.73;100.00;100683.06;4921287;28;45288;-65
2021/06/20 00:23:54;;;;;;;;;7.00;6.75;;;;;21.72;100.00;100684.84;4919443;28;45769;-65
2021/06/20 00:26:20;;;;;;;;;8.00;7.00;;;;;21.65;100.00;100676.41;4921281;28;45511;-64
2021/06/20 00:28:45;;;;;;;;;8.25;7.75;;;;;21.63;100.00;100678.31;4921024;28;45528;-64
2021/06/20 00:31:12;;;;;;;;;8.75;8.00;;;;;21.61;100.00;100680.22;4921075;28;45454;-65
2021/06/20 00:33:39;;;;;;;;;7.50;6.25;;;;;21.57;100.00;100676.03;4921396;28;45415;-65
2021/06/20 00:36:09;;;;;;;;;6.50;6.50;;;;;21.48;100.00;100652.69;4920577;28;45738;-64
2021/06/20 00:38:38;;;;;;;;;5.75;5.00;;;;;21.48;100.00;100652.69;4920644;28;45419;-65
2021/06/20 00:44:27;;;;;;;;;6.00;6.00;;;;;21.50;100.00;100655.22;4921172;28;45383;-65
2021/06/20 00:46:55;;;;;;;;;6.25;6.00;;;;;21.53;100.00;100674.53;4903412;28;47093;-65
2021/06/20 00:49:24;;;;;;;;;5.50;5.00;;;;;21.45;100.00;100668.81;4920354;28;45529;-65
2021/06/20 00:51:49;;;;;;;;;6.25;6.00;;;;;21.42;100.00;100674.31;4920841;28;45353;-64
2021/06/20 00:54:15;;;;;;;;;4.75;4.00;;;;;21.36;100.00;100670.22;4920756;28;45465;-65
2021/06/20 00:56:40;;;;;;;;;5.75;4.75;;;;;21.32;100.00;100670.50;4920383;28;45489;-65
2021/06/20 00:59:05;;;;;;;;;4.00;3.50;;;;;21.29;100.00;100674.22;4920814;28;45508;-66
2021/06/20 01:01:34;;;;;;;;;4.25;4.00;;;;;21.22;100.00;100671.94;4919686;28;45358;-65
2021/06/20 01:04:00;;;;;;;;;2.75;2.75;;;;;21.17;100.00;100674.88;4921043;28;45283;-65
2021/06/20 01:06:28;;;;;;;;;4.75;3.75;;;;;21.17;100.00;100679.34;4919770;28;46876;-65
2021/06/20 01:08:54;;;;;;;;;3.75;3.25;;;;;21.06;100.00;100667.56;4920307;28;45213;-66
2021/06/20 01:14:53;;;;;;;;;5.75;4.75;;;;;21.01;100.00;100674.06;4920738;28;45365;-65
2021/06/20 01:17:20;;;;;;;;;4.00;4.00;;;;;20.99;100.00;100678.63;4920724;28;46511;-65
2021/06/20 01:19:46;;;;;;;;;4.00;3.75;;;;;20.95;100.00;100677.94;4920310;28;45366;-65
2021/06/20 01:22:32;;;;;;;;;4.00;4.00;;;;;20.92;100.00;100679.94;4920273;28;45430;-65
2021/06/20 01:25:00;;;;;;;;;3.00;3.00;;;;;20.81;100.00;100661.97;4920422;28;45516;-66
2021/06/20 01:27:31;;;;;;;;;6.75;4.75;;;;;20.73;100.00;100651.81;4920275;28;47506;-65
2021/06/20 01:29:56;;;;;;;;;3.00;3.00;;;;;20.75;100.00;100668.47;4920517;28;45378;-68
2021/06/20 01:32:22;;;;;;;;;3.00;3.00;;;;;20.73;100.00;100673.03;4920211;28;45401;-65
2021/06/20 01:34:48;;;;;;;;;4.75;4.00;;;;;20.67;100.00;100665.44;4920677;28;45453;-65
2021/06/20 01:37:17;;;;;;;;;2.75;2.75;;;;;20.66;100.00;100666.38;4920319;28;45425;-65
2021/06/20 01:39:44;;;;;;;;;1.50;1.50;;;;;20.69;100.00;100670.63;4920358;28;45432;-65
2021/06/20 01:42:13;;;;;;;;;2.25;2.00;;;;;20.60;100.00;100661.44;4920242;28;45460;-65
2021/06/20 01:44:53;;;;;;;;;3.75;2.50;;;;;20.66;100.00;100674.34;4920290;28;45337;-65
2021/06/20 01:47:22;;;;;;;;;2.00;2.00;;;;;20.65;100.00;100672.63;4919750;28;45381;-64
2021/06/20 01:49:48;;;;;;;;;2.75;2.25;;;;;20.63;100.00;100668.34;4919918;28;45353;-65
2021/06/20 01:52:20;;;;;;;;;3.00;2.00;;;;;20.59;100.00;100662.34;4920311;28;45354;-66
2021/06/20 01:54:52;;;;;;;;;3.00;3.00;;;;;20.58;100.00;100662.44;4920403;28;45357;-66
2021/06/20 01:57:27;;;;;;;;;2.75;2.75;;;;;20.56;100.00;100662.50;4920144;28;45703;-65
2021/06/20 01:59:55;;;;;;;;;2.00;2.00;;;;;20.45;100.00;100644.56;4919725;28;45332;-65
2021/06/20 02:02:21;;;;;;;;;2.25;0.50;;;;;20.48;100.00;100659.44;4920127;28;45430;-65
2021/06/20 02:04:47;;;;;;;;;0.50;0.50;;;;;20.46;100.00;100667.50;4920419;28;45369;-66
2021/06/20 02:07:14;;;;;;;;;2.50;2.50;;;;;20.37;100.00;100656.53;4919922;28;45444;-66
2021/06/20 02:09:40;;;;;;;;;1.50;1.50;;;;;20.39;100.00;100665.25;4919425;28;45434;-66
2021/06/20 02:12:07;;;;;;;;;1.00;1.00;;;;;20.21;100.00;100630.00;4919991;28;45392;-66
2021/06/20 02:14:33;;;;;;;;;2.00;2.00;;;;;20.35;100.00;100663.69;4919438;28;45422;-66
2021/06/20 02:16:59;;;;;;;;;2.25;2.00;;;;;20.26;100.00;100659.78;4919399;28;46522;-66
2021/06/20 02:19:28;;;;;;;;;2.50;1.50;;;;;20.25;100.00;100658.06;4919526;28;45777;-66
2021/06/20 02:21:53;;;;;;;;;2.00;2.00;;;;;20.28;100.00;100659.69;4919578;28;45345;-66
2021/06/20 02:24:18;;;;;;;;;2.50;1.75;;;;;20.26;100.00;100653.63;4919645;28;45480;-66
2021/06/20 02:30:09;;;;;;;;;0.25;0.00;;;;;20.15;100.00;100660.38;4919587;28;45334;-66
2021/06/20 02:32:36;;;;;;;;;2.50;2.00;;;;;20.13;100.00;100642.81;4918637;28;45381;-66
2021/06/20 02:35:03;;;;;;;;;2.00;1.00;;;;;20.13;100.00;100653.44;4919889;28;45211;-65
2021/06/20 02:37:29;;;;;;;;;1.75;1.00;;;;;20.08;100.00;100660.78;4918686;28;45354;-64
2021/06/20 02:39:55;;;;;;;;;2.25;2.25;;;;;20.04;100.00;100664.53;4919326;28;45388;-64
2021/06/20 02:42:21;;;;;;;;;3.50;2.50;;;;;20.00;100.00;100670.97;4919739;28;45355;-64
2021/06/20 02:44:47;;;;;;;;;1.50;1.00;;;;;19.89;100.00;100660.91;4919651;28;45398;-65
2021/06/20 02:47:13;;;;;;;;;2.00;1.00;;;;;19.85;100.00;100684.09;4902040;28;46276;-65
2021/06/20 02:49:39;;;;;;;;;1.75;1.75;;;;;19.83;100.00;100679.81;4919264;28;45391;-64
2021/06/20 02:52:06;;;;;;;;;1.00;1.00;;;;;19.75;100.00;100696.13;4919662;28;45417;-65
2021/06/20 02:54:32;;;;;;;;;1.25;1.25;;;;;19.70;100.00;100697.31;4919461;28;45443;-66
2021/06/20 02:56:58;;;;;;;;;1.50;1.00;;;;;19.65;100.00;100694.88;4919293;28;45606;-65
2021/06/20 02:59:27;;;;;;;;;2.25;2.00;;;;;19.61;100.00;100684.53;4918124;28;45613;-64
2021/06/20 03:01:52;;;;;;;;;1.00;1.00;;;;;19.54;100.00;100673.41;4919235;28;45354;-64
2021/06/20 03:04:18;;;;;;;;;1.00;1.00;;;;;19.53;100.00;100671.66;4919017;28;45436;-64
2021/06/20 03:06:44;;;;;;;;;2.00;2.00;;;;;19.47;100.00;100680.81;4919008;28;46508;-65
2021/06/20 03:09:10;;;;;;;;;1.00;1.00;;;;;19.50;100.00;100685.06;4918910;28;45375;-64
2021/06/20 03:14:57;;;;;;;;;1.25;1.25;;;;;19.33;100.00;100663.91;4919276;28;45317;-64
2021/06/20 03:17:22;;;;;;;;;1.00;1.00;;;;;19.42;100.00;100684.59;4918715;28;47579;-64
2021/06/20 03:19:50;;;;;;;;;1.25;1.25;;;;;19.44;100.00;100688.03;4919148;28;45353;-64
2021/06/20 03:22:15;;;;;;;;;1.00;1.00;;;;;19.35;100.00;100694.66;4918889;28;45467;-64
2021/06/20 03:24:45;;;;;;;;;2.25;1.50;;;;;19.36;100.00;100692.88;4919101;28;45427;-65
2021/06/20 03:27:11;;;;;;;;;1.25;1.00;;;;;19.33;100.00;100688.59;4921757;28;45448;-65
2021/06/20 03:29:37;;;;;;;;;2.00;1.00;;;;;19.28;100.00;100686.19;4921699;28;45393;-64
2021/06/20 03:32:03;;;;;;;;;2.00;2.00;;;;;19.25;100.00;100681.06;4922146;28;45380;-65
2021/06/20 03:34:31;;;;;;;;;3.00;2.50;;;;;19.24;100.00;100684.63;4922204;28;45372;-65
2021/06/20 03:36:56;;;;;;;;;1.00;1.00;;;;;19.20;100.00;100666.31;4921404;28;47344;-64
2021/06/20 03:39:21;;;;;;;;;1.75;1.75;;;;;19.09;100.00;100655.44;4921547;28;45226;-64
2021/06/20 03:45:09;;;;;;;;;2.00;1.00;;;;;19.10;100.00;100671.22;4921805;28;45442;-65
2021/06/20 03:47:36;;;;;;;;;2.00;2.00;;;;;19.21;100.00;100682.13;4921388;28;47050;-64
2021/06/20 03:50:02;;;;;;;;;1.00;1.00;;;;;19.20;100.00;100672.47;4921730;28;45578;-64
2021/06/20 03:52:28;;;;;;;;;1.75;1.75;;;;;19.19;100.00;100664.59;4920837;28;45334;-65
2021/06/20 03:54:53;;;;;;;;;1.25;1.25;;;;;19.26;100.00;100682.75;4921836;28;45249;-65
2021/06/20 03:57:25;;;;;;;;;1.00;1.00;;;;;19.23;100.00;100682.03;4921220;28;45323;-65
2021/06/20 03:59:51;;;;;;;;;1.75;1.00;;;;;19.25;100.00;100686.34;4921415;28;45452;-66
2021/06/20 04:02:19;;;;;;;;;2.00;1.75;;;;;19.24;100.00;100676.69;4921348;28;45287;-65
2021/06/20 04:04:45;;;;;;;;;1.00;1.00;;;;;19.26;100.00;100680.13;4921809;28;45552;-65
2021/06/20 04:07:12;;;;;;;;;2.00;2.00;;;;;19.25;100.00;100686.34;4920290;28;46570;-65
2021/06/20 04:09:39;;;;;;;;;2.00;2.00;;;;;19.28;100.00;100687.97;4920955;28;45637;-65
2021/06/20 04:15:26;;;;;;;;;2.75;2.00;;;;;19.34;100.00;100690.31;4921354;28;45376;-65
2021/06/20 04:17:52;;;;;;;;;1.00;1.00;;;;;19.37;100.00;100699.88;4920705;28;47296;-65
2021/06/20 04:20:17;;;;;;;;;2.00;2.00;;;;;19.42;100.00;100706.63;4903934;28;45362;-66
2021/06/20 04:22:43;;;;;;;;;1.75;1.75;;;;;19.45;100.00;100714.41;4921105;28;45379;-65
2021/06/20 04:25:13;;;;;;;;;1.00;1.00;;;;;19.43;100.00;100699.53;4921326;28;45426;-65
2021/06/20 04:27:39;;;;;;;;;1.00;1.00;;;;;19.53;100.00;100709.63;4921062;28;45544;-65
2021/06/20 04:30:06;;;;;;;;;1.75;1.75;;;;;19.58;100.00;100701.44;4920474;28;45413;-65
2021/06/20 04:32:31;;;;;;;;;1.00;0.75;;;;;19.61;100.00;100698.63;4920563;28;45340;-65
2021/06/20 04:34:56;;;;;;;;;1.50;1.50;;;;;19.69;100.00;100715.00;4920895;28;45468;-65
2021/06/20 04:37:22;;;;;;;;;2.25;2.25;;;;;19.74;100.00;100720.06;4939431;28;45475;-66
2021/06/20 04:39:48;;;;;;;;;2.00;2.00;;;;;19.81;100.00;100724.94;4939995;28;45371;-65
2021/06/20 04:45:35;;;;;;;;;2.00;2.00;;;;;19.81;100.00;100714.34;4940065;28;45456;-65
2021/06/20 04:48:01;;;;;;;;;2.50;2.50;;;;;19.83;100.00;100707.16;4939647;28;46796;-65
2021/06/20 04:50:26;;;;;;;;;1.50;1.00;;;;;19.91;100.00;100698.78;4939600;28;45392;-65
2021/06/20 04:52:52;;;;;;;;;1.00;1.00;;;;;19.92;100.00;100689.06;4939791;28;45380;-65
2021/06/20 04:55:18;;;;;;;;;3.00;2.00;;;;;19.96;100.00;100687.97;4939806;28;45357;-65
2021/06/20 04:57:43;;;;;;;;;2.00;2.00;;;;;19.90;100.00;100675.88;4939590;28;46800;-65
2021/06/20 05:00:10;;;;;;;;;2.00;1.75;;;;;19.98;100.00;100704.63;4939318;28;45426;-65
2021/06/20 05:02:36;;;;;;;;;3.00;2.50;;;;;19.97;100.00;100711.75;4939738;28;45289;-65
2021/06/20 05:05:03;;;;;;;;;3.00;3.00;;;;;19.92;100.00;100705.84;4940101;28;45534;-67
2021/06/20 05:07:29;;;;;;;;;2.00;2.00;;;;;19.93;100.00;100714.63;4939692;28;46376;-65
2021/06/20 05:09:55;;;;;;;;;3.00;3.00;;;;;19.81;100.00;100687.84;4922174;28;45543;-65
2021/06/20 05:15:42;;;;;;;;;2.00;2.00;;;;;19.84;100.00;100698.28;4939595;28;45333;-67
2021/06/20 05:18:08;;;;;;;;;2.75;2.00;;;;;19.88;100.00;100694.50;4939073;28;46352;-65
2021/06/20 05:20:33;;;;;;;;;3.00;3.00;;;;;19.88;100.00;100699.81;4938766;28;45369;-65
2021/06/20 05:22:58;;;;;;;;;2.50;2.25;;;;;19.92;100.00;100712.94;4938812;28;45337;-67
2021/06/20 05:25:24;;;;;;;;;3.00;3.00;;;;;19.92;100.00;100712.94;4938989;28;45547;-67
2021/06/20 05:27:49;;;;;;;;;2.00;2.00;;;;;19.94;100.00;100725.16;4921133;28;47493;-66
2021/06/20 05:30:15;;;;;;;;;3.00;3.00;;;;;19.93;100.00;100722.59;4936969;28;46145;-65
2021/06/20 05:32:41;;;;;;;;;2.00;2.00;;;;;19.94;100.00;100734.91;4938198;28;45402;-66
2021/06/20 05:35:06;;;;;;;;;3.00;3.00;;;;;19.93;100.00;100722.59;4921330;28;45508;-65
2021/06/20 05:37:32;;;;;;;;;2.75;2.25;;;;;20.01;100.00;100720.38;4938162;28;46597;-65
2021/06/20 05:39:57;;;;;;;;;2.75;2.75;;;;;19.98;100.00;100704.63;4938451;28;45544;-67
2021/06/20 05:42:23;;;;;;;;;2.75;2.75;;;;;20.05;100.00;100717.47;4921478;28;45474;-64
2021/06/20 05:44:48;;;;;;;;;3.00;3.00;;;;;20.10;100.00;100727.81;4938655;28;45312;-68
2021/06/20 05:47:14;;;;;;;;;2.00;2.00;;;;;20.17;100.00;100740.69;4938481;28;46494;-65
2021/06/20 05:49:39;;;;;;;;;3.00;2.50;;;;;20.26;100.00;100735.81;4920100;28;45408;-66
2021/06/20 05:52:05;;;;;;;;;2.00;2.00;;;;;20.29;100.00;100725.88;4938350;28;45318;-66
2021/06/20 05:54:30;;;;;;;;;5.00;4.00;;;;;20.42;100.00;100719.00;4938469;28;45468;-66
2021/06/20 05:56:55;;;;;;;;;3.00;3.00;;;;;20.45;100.00;100718.84;4938022;28;46144;-67
2021/06/20 05:59:21;;;;;;;;;3.25;3.25;;;;;20.52;100.00;100731.75;4938317;28;45571;-67
2021/06/20 06:01:46;;;;;;;;;2.00;2.00;;;;;20.30;100.00;100698.44;4938170;28;45399;-67
2021/06/20 06:04:12;;;;;;;;;3.00;3.00;;;;;20.40;100.00;100722.66;4938524;28;45390;-67
2021/06/20 06:06:37;;;;;;;;;3.00;3.00;;;;;20.33;100.00;100714.16;4937714;28;45547;-66
2021/06/20 06:09:03;;;;;;;;;2.75;2.75;;;;;20.25;100.00;100703.13;4937682;28;45313;-68
2021/06/20 06:11:28;;;;;;;;;2.50;2.50;;;;;20.26;100.00;100714.59;4937667;28;45305;-68
2021/06/20 06:13:54;;;;;;;;;4.00;3.00;;;;;20.19;100.00;100716.72;4937924;28;45627;-65
2021/06/20 06:16:22;;;;;;;;;3.00;2.50;;;;;20.17;100.00;100724.78;4937875;28;47070;-68
2021/06/20 06:18:48;;;;;;;;;3.25;3.00;;;;;20.13;100.00;100722.34;4937553;28;45424;-65
2021/06/20 06:21:13;;;;;;;;;2.75;2.75;;;;;20.16;100.00;100727.50;4938124;28;45555;-65
2021/06/20 06:23:39;;;;;;;;;3.00;3.00;;;;;20.14;100.00;100732.00;4936808;28;45341;-67
2021/06/20 06:26:05;;;;;;;;;3.00;3.00;;;;;20.17;100.00;100729.22;4936968;28;45663;-67
2021/06/20 06:28:30;;;;;;;;;2.00;1.50;;;;;20.12;100.00;100728.59;4937449;28;45263;-67
2021/06/20 06:30:56;;;;;;;;;6.75;3.50;;;;;20.17;100.00;100729.22;4937365;28;45452;-68
2021/06/20 06:33:21;;;;;;;;;2.50;2.50;;;;;20.19;100.00;100728.19;4937771;28;45244;-66
2021/06/20 06:35:47;;;;;;;;;3.00;3.00;;;;;20.19;100.00;100728.19;4937527;28;45369;-66
2021/06/20 06:38:12;;;;;;;;;3.50;3.00;;;;;20.19;100.00;100728.19;4937591;28;45305;-66
2021/06/20 06:40:38;;;;;;;;;5.00;4.00;;;;;20.19;100.00;100717.59;4937431;28;45386;-66
2021/06/20 06:43:03;;;;;;;;;3.00;3.00;;;;;20.16;100.00;100722.22;4937427;28;45515;-66
2021/06/20 06:45:29;;;;;;;;;4.00;3.00;;;;;20.13;100.00;100717.03;4937375;28;46064;-66
2021/06/20 06:47:54;;;;;;;;;5.00;3.50;;;;;20.10;100.00;100718.06;4938027;28;45444;-65
2021/06/20 06:50:19;;;;;;;;;2.50;2.50;;;;;20.18;100.00;100726.50;4938035;28;45694;-66
2021/06/20 06:52:46;;;;;;;;;4.00;4.00;;;;;20.22;100.00;100727.16;4937955;28;45450;-65
2021/06/20 06:55:13;;;;;;;;;3.75;3.00;;;;;20.27;100.00;100730.41;4937851;28;45648;-66
2021/06/20 07:01:00;;;;;;;;;4.00;3.00;;;;;20.36;100.00;100707.84;4940511;28;45496;-65
2021/06/20 07:03:25;;;;;;;;;2.75;2.00;;;;;20.56;100.00;100727.97;4941185;28;45497;-66
2021/06/20 07:05:53;;;;;;;;;3.50;2.50;;;;;20.76;100.00;100730.38;4940582;28;46864;-65
2021/06/20 07:08:18;;;;;;;;;3.50;3.00;;;;;20.89;100.00;100734.06;4940519;28;45796;-65
2021/06/20 07:10:43;;;;;;;;;4.25;3.75;;;;;21.03;100.00;100738.56;4939757;28;45346;-65
2021/06/20 07:16:31;;;;;;;;;4.00;2.25;;;;;21.35;100.00;100744.69;4940581;28;45882;-64
2021/06/20 07:18:57;;;;;;;;;4.00;3.00;;;;;21.51;100.00;100736.69;4940672;28;45412;-65
2021/06/20 07:21:22;;;;;;;;;3.25;2.50;;;;;21.59;100.00;100745.88;4940879;28;45360;-65
2021/06/20 07:23:48;;;;;;;;;2.00;2.00;;;;;21.63;100.00;100747.41;4941040;28;45451;-65
2021/06/20 07:26:13;;;;;;;;;3.75;3.00;;;;;21.68;100.00;100741.81;4940429;28;46833;-66
2021/06/20 07:28:39;;;;;;;;;3.50;3.50;;;;;21.70;100.00;100738.09;4940560;28;45445;-65
2021/06/20 07:31:05;;;;;;;;;2.25;2.25;;;;;21.81;100.00;100733.97;4940876;28;45479;-65
2021/06/20 07:33:30;;;;;;;;;3.50;3.50;;;;;21.85;100.00;100743.44;4923457;28;45586;-67
2021/06/20 07:35:57;;;;;;;;;3.25;3.00;;;;;21.79;100.00;100735.84;4940379;28;46402;-65
2021/06/20 07:38:23;;;;;;;;;3.50;3.00;;;;;21.78;100.00;100755.41;4940471;28;45570;-65
2021/06/20 07:40:49;;;;;;;;;5.00;4.00;;;;;21.73;100.00;100744.19;4940635;28;45334;-67
2021/06/20 07:46:36;;;;;;;;;3.50;3.50;;;;;21.88;100.00;100743.25;4940332;28;45370;-65
2021/06/20 07:49:02;;;;;;;;;4.00;3.25;;;;;21.90;100.00;100730.72;4940472;28;45324;-66
2021/06/20 07:51:27;;;;;;;;;3.00;3.00;;;;;21.96;100.00;100735.69;4940744;28;45301;-65
2021/06/20 07:53:52;;;;;;;;;3.25;3.25;;;;;21.96;100.00;100738.34;4940632;28;45360;-65
2021/06/20 07:56:18;;;;;;;;;2.75;2.75;;;;;21.88;100.00;100722.84;4940193;28;46280;-65
2021/06/20 07:58:43;;;;;;;;;3.50;2.75;;;;;21.96;100.00;100725.06;4939585;28;45384;-65
2021/06/20 08:01:08;;;;;;;;;3.00;2.25;;;;;22.04;100.00;100730.78;4940061;28;45277;-65
2021/06/20 08:03:34;;;;;;;;;5.00;4.00;;;;;22.06;100.00;100731.53;4940592;28;45325;-66
2021/06/20 08:06:06;;;;;;;;;3.25;3.00;;;;;22.08;100.00;100720.78;4939667;28;47169;-65
2021/06/20 08:08:31;;;;;;;;;4.50;3.00;;;;;22.06;100.00;100714.72;4940114;28;45446;-69
2021/06/20 08:11:01;;;;;;;;;2.50;2.00;;;;;22.11;100.00;100723.25;4939755;28;45390;-66
2021/06/20 08:13:26;;;;;;;;;3.00;2.50;;;;;22.13;100.00;100718.69;4940121;28;45377;-65
2021/06/20 08:15:51;;;;;;;;;3.00;2.75;;;;;22.17;100.00;100718.41;4940037;28;45336;-66
2021/06/20 08:18:17;;;;;;;;;3.00;2.00;;;;;22.20;100.00;100712.06;4939848;28;45403;-66
2021/06/20 08:20:42;;;;;;;;;3.00;3.00;;;;;22.28;100.00;100709.75;4922869;28;45364;-68
2021/06/20 08:23:08;;;;;;;;;4.00;3.00;;;;;22.33;100.00;100714.78;4939481;28;45543;-67
2021/06/20 08:25:33;;;;;;;;;3.00;3.00;;;;;22.37;100.00;100714.47;4939783;28;46872;-66
2021/06/20 08:31:20;;;;;;;;;4.00;3.25;;;;;22.57;100.00;100721.19;4939821;28;45442;-66
2021/06/20 08:33:48;;;;;;;;;6.00;6.00;;;;;22.62;100.00;100716.41;4938520;28;45439;-66
2021/06/20 08:36:14;;;;;;;;;4.50;4.00;;;;;22.71;100.00;100717.66;4938773;28;46472;-66
2021/06/20 08:38:39;;;;;;;;;3.00;3.00;;;;;22.75;100.00;100721.81;4939763;28;45427;-66
2021/06/20 08:41:05;;;;;;;;;3.00;3.00;;;;;22.88;100.00;100707.66;4940034;28;45426;-65
2021/06/20 08:46:54;;;;;;;;;3.00;2.75;;;;;23.26;100.00;100725.53;4939453;28;45364;-66
2021/06/20 08:49:20;;;;;;;;;3.75;2.00;;;;;23.45;100.00;100720.66;4939311;28;45439;-65
2021/06/20 08:51:49;;;;;;;;;3.00;3.00;;;;;23.66;100.00;100721.03;4939649;28;45360;-66
2021/06/20 08:54:15;;;;;;;;;3.50;3.00;;;;;23.81;100.00;100716.47;4939582;28;45283;-67
2021/06/20 08:56:41;;;;;;;;;3.00;2.25;;;;;23.91;100.00;100712.16;4939511;28;45496;-67
2021/06/20 08:59:07;;;;;;;;;3.50;3.00;;;;;24.01;100.00;100702.59;4939394;28;45871;-66
2021/06/20 09:01:33;;;;;;;;;3.00;3.00;;;;;24.14;100.00;100699.88;4939496;28;45585;-66
2021/06/20 09:03:59;;;;;;;;;3.00;3.00;;;;;24.24;100.00;100695.59;4939553;28;45519;-66
2021/06/20 09:06:25;;;;;;;;;3.00;3.00;;;;;24.33;100.00;100691.44;4939080;28;46359;-67
2021/06/20 09:08:59;;;;;;;;;4.25;3.50;;;;;24.44;100.00;100675.47;4939130;28;45412;-66
2021/06/20 09:11:30;;;;;;;;;3.75;3.75;;;;;24.60;100.00;100670.72;4939216;28;45408;-66
2021/06/20 09:14:05;;;;;;;;;3.50;3.50;;;;;24.76;100.00;100665.09;4939008;28;45404;-66
2021/06/20 09:16:32;;;;;;;;;2.25;1.75;;;;;24.96;100.00;100660.94;4939022;28;46502;-65
2021/06/20 09:18:57;;;;;;;;;2.25;2.00;;;;;25.08;100.00;100654.69;4921929;28;45467;-66
2021/06/20 09:21:26;;;;;;;;;3.25;2.25;;;;;25.12;100.00;100649.94;4939076;28;45711;-66
2021/06/20 09:24:02;;;;;;;;;1.25;1.25;;;;;25.22;100.00;100659.84;4938168;28;45443;-66
2021/06/20 09:26:39;;;;;;;;;2.25;2.25;;;;;25.27;100.00;100644.28;4939072;28;45592;-65
2021/06/20 09:29:10;;;;;;;;;2.75;2.75;;;;;25.34;100.00;100632.16;4938950;28;45650;-66
2021/06/20 09:31:48;;;;;;;;;3.25;2.25;;;;;25.51;100.00;100627.31;4939098;28;45242;-66
2021/06/20 09:34:17;;;;;;;;;2.25;2.25;;;;;25.54;100.00;100600.34;4938810;28;45357;-66
2021/06/20 09:36:46;;;;;;;;;2.00;1.50;;;;;25.81;100.00;100616.91;4938670;28;45493;-66
2021/06/20 09:39:23;;;;;;;;;2.25;2.25;;;;;25.98;100.00;100623.56;4938420;28;45258;-67
2021/06/20 09:41:55;;;;;;;;;3.25;3.25;;;;;26.12;100.00;100630.50;4921291;28;45372;-69
2021/06/20 09:44:39;;;;;;;;;1.50;1.50;;;;;26.32;100.00;100642.25;4938239;28;45359;-67
2021/06/20 09:47:06;;;;;;;;;1.25;1.25;;;;;26.51;100.00;100643.34;4938624;28;45449;-70
2021/06/20 09:49:32;;;;;;;;;2.00;2.00;;;;;26.73;100.00;100650.44;4938796;28;45373;-72
2021/06/20 09:51:59;;;;;;;;;1.00;1.00;;;;;26.88;100.00;100655.47;4939052;28;45353;-72
2021/06/20 09:54:32;;;;;;;;;1.00;1.00;;;;;27.06;100.00;100646.78;4939093;28;45241;-72
2021/06/20 09:56:59;;;;;;;;;1.25;1.25;;;;;27.32;100.00;100638.34;4938149;28;46416;-71
2021/06/20 09:59:32;;;;;;;;;2.00;2.00;;;;;27.66;100.00;100637.16;4938468;28;45418;-71
2021/06/20 10:02:12;;;;;;;;;1.25;1.25;;;;;28.10;100.00;100624.31;4938587;28;45353;-71
2021/06/20 10:04:40;;;;;;;;;2.75;1.00;;;;;28.66;100.00;100626.41;4938359;28;45510;-70
2021/06/20 10:07:07;;;;;;;;;1.50;1.00;;;;;29.35;100.00;100628.03;4938202;28;46399;-70
2021/06/20 10:09:35;;;;;;;;;0.00;0.00;;;;;30.10;100.00;100617.19;4938029;28;45448;-72
2021/06/20 10:12:01;;;;;;;;;1.00;1.00;;;;;30.94;100.00;100616.81;4938144;28;45395;-71
2021/06/20 10:14:27;;;;;;;;;0.75;0.25;;;;;31.82;100.00;100628.41;4938636;28;45447;-71
2021/06/20 10:16:58;;;;;;;;;0.25;0.25;;;;;32.50;100.00;100625.59;4937829;28;46703;-71
2021/06/20 10:19:26;;;;;;;;;1.00;0.75;;;;;33.28;100.00;100629.69;4937717;28;45333;-71
2021/06/20 10:22:12;;;;;;;;;1.00;1.00;;;;;33.76;100.00;100612.50;4938186;28;45403;-71
2021/06/20 10:24:53;;;;;;;;;1.00;1.00;;;;;33.89;100.00;100601.09;4938102;28;45537;-70
2021/06/20 10:27:44;;;;;;;;;1.00;1.00;;;;;33.71;100.00;100590.47;4920557;28;46408;-71
2021/06/20 10:30:20;;;;;;;;;1.00;1.00;;;;;33.45;100.00;100604.28;4920377;28;45421;-70
2021/06/20 10:32:49;;;;;;;;;4.00;4.00;;;;;33.19;100.00;100585.53;4937839;28;45318;-70
2021/06/20 10:35:16;;;;;;;;;1.00;1.00;;;;;32.88;100.00;100580.03;4939720;28;45345;-69
2021/06/20 10:37:42;;;;;;;;;1.00;1.00;;;;;32.52;100.00;100560.53;4940891;28;46586;-71
2021/06/20 10:40:29;;;;;;;;;1.00;1.00;;;;;32.23;100.00;100571.81;4941505;28;45649;-69
2021/06/20 10:43:00;;;;;;;;;2.00;2.00;;;;;32.11;100.00;100570.41;4941313;28;45440;-69
2021/06/20 10:45:34;;;;;;;;;1.50;1.50;;;;;31.93;100.00;100547.09;4941680;28;45439;-69
2021/06/20 10:48:12;;;;;;;;;2.00;2.00;;;;;32.01;100.00;100537.31;4941144;28;46163;-74
2021/06/20 10:50:40;;;;;;;;;2.00;1.25;;;;;32.13;100.00;100525.16;4940893;28;45428;-70
2021/06/20 10:53:06;;;;;;;;;2.00;2.00;;;;;32.43;100.00;100507.50;4941139;28;45318;-70
2021/06/20 10:55:45;;;;;;;;;3.50;3.50;;;;;32.83;100.00;100501.25;4941222;28;45300;-71
2021/06/20 10:58:22;;;;;;;;;2.75;2.00;;;;;33.11;100.00;100494.41;4940771;28;46301;-71
2021/06/20 11:00:50;;;;;;;;;2.00;2.00;;;;;33.24;100.00;100487.59;4941386;28;45534;-70
2021/06/20 11:03:29;;;;;;;;;2.50;2.50;;;;;33.31;100.00;100483.19;4940932;28;45242;-70
2021/06/20 11:06:02;;;;;;;;;2.00;2.00;;;;;33.45;100.00;100485.16;4941282;28;45356;-70
2021/06/20 11:08:34;;;;;;;;;3.00;2.00;;;;;33.72;100.00;100500.09;4940418;28;45619;-70
2021/06/20 11:11:05;;;;;;;;;3.25;2.00;;;;;33.91;100.00;100485.28;4940827;28;45579;-70
2021/06/20 11:13:31;;;;;;;;;2.25;2.00;;;;;34.12;100.00;100474.63;4940690;28;45490;-70
2021/06/20 11:16:11;;;;;;;;;4.00;3.00;;;;;34.16;100.00;100472.38;4940681;28;45593;-71
2021/06/20 11:18:37;;;;;;;;;2.00;1.50;;;;;33.97;100.00;100468.31;4940577;28;46478;-71
2021/06/20 11:21:03;;;;;;;;;2.00;2.00;;;;;33.84;100.00;100474.31;4940590;28;45496;-70
2021/06/20 11:23:30;;;;;;;;;2.75;2.00;;;;;33.71;100.00;100469.44;4941102;28;45328;-71
2021/06/20 11:25:57;;;;;;;;;2.00;2.00;;;;;33.53;100.00;100465.34;4940604;28;45344;-71
2021/06/20 11:28:23;;;;;;;;;2.00;2.00;;;;;33.27;100.00;100471.00;4939995;28;47166;-71
2021/06/20 11:30:49;;;;;;;;;1.00;1.00;;;;;33.03;100.00;100480.03;4939998;28;45560;-70
2021/06/20 11:33:27;;;;;;;;;3.00;3.00;;;;;32.78;100.00;100465.72;4940253;28;45444;-70
2021/06/20 11:35:53;;;;;;;;;3.00;3.00;;;;;32.64;100.00;100469.13;4940826;28;45241;-70
2021/06/20 11:38:39;;;;;;;;;2.50;2.25;;;;;32.64;100.00;100480.78;4939968;28;47274;-70
2021/06/20 11:41:17;;;;;;;;;1.75;1.75;;;;;32.50;100.00;100463.41;4940223;28;45430;-66
2021/06/20 11:43:52;;;;;;;;;2.00;2.00;;;;;32.50;100.00;100463.41;4940563;28;45514;-66
2021/06/20 11:46:21;;;;;;;;;2.75;2.75;;;;;32.48;100.00;100459.19;4939576;28;45376;-68
2021/06/20 11:48:55;;;;;;;;;3.50;3.00;;;;;32.50;100.00;100458.00;4939937;28;46515;-68
2021/06/20 11:51:41;;;;;;;;;1.25;1.25;;;;;32.57;100.00;100467.09;4940211;28;45584;-68
2021/06/20 11:54:22;;;;;;;;;3.00;2.50;;;;;32.58;100.00;100470.63;4940101;28;45428;-66
2021/06/20 11:57:07;;;;;;;;;3.00;3.00;;;;;32.59;100.00;100485.84;4940224;28;45285;-66
2021/06/20 11:59:36;;;;;;;;;2.75;2.25;;;;;32.64;100.00;100485.34;4939551;28;46386;-66
2021/06/20 12:02:05;;;;;;;;;2.25;2.25;;;;;32.67;100.00;100476.91;4939765;28;45365;-67
2021/06/20 12:04:32;;;;;;;;;3.25;3.00;;;;;32.63;100.00;100473.69;4940115;28;45394;-66